Terminal Aerodrome Forecast
Issued by NWS Sioux Falls, SD

Home | Current Version | Previous Version | Text Only | Print | Product List | Glossary On
Versions: 1 2 3 4 5 6 7 8 9 10 11 12 13 14 15 16 17 18
000
FTUS43 KFSD 261603 AAC
TAFFSD
TAF AMD
KFSD 261603Z 2616/2712 35019G27KT P6SM BKN060
     FM262000 34018G25KT P6SM SCT025 BKN050
     FM270000 34009KT P6SM SCT040
     FM270700 34004KT P6SM SCT120=

USA.gov is the U.S. government's official web portal to all federal, state and local government web resources and services.